createdAt,value
2018-11-05T00:00:43.284Z,100.00
2018-11-05T00:05:46.536Z,100.00
2018-11-05T00:10:49.829Z,100.00
2018-11-05T00:15:53.174Z,100.00
2018-11-05T00:20:56.474Z,100.00
2018-11-05T00:26:00.062Z,100.00
2018-11-05T00:31:03.701Z,100.00
2018-11-05T00:36:08.092Z,100.00
2018-11-05T00:41:11.325Z,100.00
2018-11-05T00:46:14.651Z,100.00
2018-11-05T00:51:17.890Z,100.00
2018-11-05T00:56:21.199Z,100.00
2018-11-05T01:01:24.807Z,100.00
2018-11-05T01:06:28.851Z,100.00
2018-11-05T01:11:32.609Z,100.00
2018-11-05T01:16:35.844Z,100.00
2018-11-05T01:21:39.267Z,100.00
2018-11-05T01:26:42.551Z,100.00
2018-11-05T01:31:45.818Z,100.00
2018-11-05T01:36:49.508Z,100.00
2018-11-05T01:41:54.581Z,100.00
2018-11-05T01:46:57.933Z,100.00
2018-11-05T01:52:01.744Z,100.00
2018-11-05T01:57:05.081Z,100.00
2018-11-05T02:02:08.505Z,100.00
2018-11-05T02:07:12.027Z,100.00
2018-11-05T02:12:15.390Z,100.00
2018-11-05T02:17:18.599Z,100.00
2018-11-05T02:22:22.611Z,100.00
2018-11-05T02:27:26.878Z,100.00
2018-11-05T02:32:30.989Z,100.00
2018-11-05T02:37:34.501Z,100.00
2018-11-05T02:42:37.767Z,100.00
2018-11-05T02:47:41.031Z,100.00
2018-11-05T02:52:44.299Z,100.00
2018-11-05T02:57:47.482Z,100.00
2018-11-05T03:02:52.063Z,100.00
2018-11-05T03:07:56.090Z,100.00
2018-11-05T03:12:59.435Z,100.00
2018-11-05T03:18:02.692Z,100.00
2018-11-05T03:23:06.215Z,100.00
2018-11-05T03:28:09.441Z,100.00
2018-11-05T03:33:12.704Z,100.00
2018-11-05T03:38:15.890Z,100.00
2018-11-05T03:43:19.216Z,100.00
2018-11-05T03:48:23.202Z,100.00
2018-11-05T03:53:27.058Z,100.00
2018-11-05T03:58:30.497Z,100.00
2018-11-05T04:03:33.980Z,100.00
2018-11-05T04:08:37.315Z,100.00
2018-11-05T04:13:40.549Z,100.00
2018-11-05T04:18:44.712Z,99.98
2018-11-05T04:23:48.256Z,99.86
2018-11-05T04:28:56.270Z,99.83
2018-11-05T04:33:59.768Z,100.00
2018-11-05T04:39:03.135Z,99.70
2018-11-05T04:44:06.352Z,99.59
2018-11-05T04:49:09.538Z,99.65
2018-11-05T04:54:12.737Z,99.26
2018-11-05T04:59:15.923Z,99.17
2018-11-05T05:04:19.378Z,98.96
2018-11-05T05:09:22.649Z,98.88
2018-11-05T05:14:26.034Z,98.49
2018-11-05T05:19:29.231Z,98.57
2018-11-05T05:24:32.454Z,98.00
2018-11-05T05:29:35.793Z,97.95
2018-11-05T05:34:39.084Z,97.90
2018-11-05T05:39:42.236Z,97.81
2018-11-05T05:44:47.485Z,97.33
2018-11-05T05:49:50.901Z,97.95
2018-11-05T05:54:54.238Z,97.67
2018-11-05T05:59:57.643Z,97.47
2018-11-05T06:05:00.725Z,97.38
2018-11-05T06:10:04.009Z,97.45
2018-11-05T06:15:08.883Z,96.98
2018-11-05T06:20:13.446Z,96.95
2018-11-05T06:25:16.834Z,96.64
2018-11-05T06:30:20.088Z,96.79
2018-11-05T06:35:23.462Z,96.91
2018-11-05T06:40:26.905Z,96.27
2018-11-05T06:45:30.462Z,96.31
2018-11-05T06:50:33.640Z,95.73
2018-11-05T06:55:36.851Z,95.22
2018-11-05T07:00:40.166Z,94.65
2018-11-05T07:05:43.928Z,94.67
2018-11-05T07:10:47.751Z,93.99
2018-11-05T07:15:51.119Z,93.30
2018-11-05T07:21:01.319Z,92.24
2018-11-05T07:26:06.269Z,91.20
2018-11-05T07:31:09.497Z,91.82
2018-11-05T07:36:13.203Z,91.62
2018-11-05T07:41:17.181Z,91.81
2018-11-05T07:46:21.283Z,91.65
2018-11-05T07:51:25.063Z,91.09
2018-11-05T07:56:28.513Z,90.76
2018-11-05T08:01:31.773Z,90.45
2018-11-05T08:06:34.936Z,90.00
2018-11-05T08:11:38.152Z,90.26
2018-11-05T08:16:41.384Z,88.83
2018-11-05T08:21:44.968Z,86.70
2018-11-05T08:26:48.130Z,85.47
2018-11-05T08:31:51.449Z,84.62
2018-11-05T08:36:56.529Z,83.54
2018-11-05T08:41:59.725Z,83.30
2018-11-05T08:47:02.977Z,83.57
2018-11-05T08:52:06.201Z,80.21
2018-11-05T08:57:09.388Z,80.63
2018-11-05T09:02:12.599Z,79.71
2018-11-05T09:07:16.007Z,81.78
2018-11-05T09:12:19.267Z,82.42
2018-11-05T09:17:22.639Z,80.71
2018-11-05T09:22:27.967Z,78.58
2018-11-05T09:27:31.175Z,77.59
2018-11-05T09:32:34.323Z,79.06
2018-11-05T09:37:37.491Z,81.21
2018-11-05T09:42:40.783Z,83.62
2018-11-05T09:47:44.028Z,82.55
2018-11-05T09:52:47.289Z,82.07
2018-11-05T09:57:50.619Z,77.43
2018-11-05T10:02:54.059Z,73.50
2018-11-05T10:07:57.186Z,71.56
2018-11-05T10:13:00.336Z,67.84
2018-11-05T10:18:03.848Z,66.31
2018-11-05T10:23:07.099Z,70.36
2018-11-05T10:28:10.288Z,69.27
2018-11-05T10:33:13.488Z,67.91
2018-11-05T10:38:16.596Z,70.94
2018-11-05T10:43:21.167Z,71.91
2018-11-05T10:48:24.407Z,72.57
2018-11-05T10:53:27.794Z,67.96
2018-11-05T10:58:30.964Z,66.80
2018-11-05T11:03:35.000Z,66.39
2018-11-05T11:08:38.634Z,68.27
2018-11-05T11:13:41.910Z,66.30
2018-11-05T11:18:45.069Z,65.12
2018-11-05T11:23:48.258Z,65.86
2018-11-05T11:28:52.381Z,67.16
2018-11-05T11:33:56.133Z,67.81
2018-11-05T11:38:59.314Z,65.99
2018-11-05T11:44:04.854Z,64.33
2018-11-05T11:49:08.018Z,63.41
2018-11-05T11:54:11.222Z,64.27
2018-11-05T11:59:15.116Z,63.58
2018-11-05T12:04:18.305Z,62.23
2018-11-05T12:09:21.644Z,61.75
2018-11-05T12:14:24.840Z,62.63
2018-11-05T12:19:27.968Z,62.60
2018-11-05T12:24:31.261Z,63.84
2018-11-05T12:29:34.623Z,64.30
2018-11-05T12:34:37.832Z,65.71
2018-11-05T12:39:41.084Z,65.80
2018-11-05T12:44:44.321Z,66.90
2018-11-05T12:49:47.472Z,66.94
2018-11-05T12:54:50.856Z,67.31
2018-11-05T12:59:54.199Z,68.26
2018-11-05T13:04:57.513Z,68.08
2018-11-05T13:10:00.841Z,68.39
2018-11-05T13:15:04.963Z,67.98
2018-11-05T13:20:10.503Z,67.53
2018-11-05T13:25:13.753Z,66.40
2018-11-05T13:30:16.982Z,66.31
2018-11-05T13:35:20.398Z,66.88
2018-11-05T13:40:23.871Z,68.20
2018-11-05T13:45:27.664Z,68.04
2018-11-05T13:50:31.000Z,70.47
2018-11-05T13:55:33.827Z,71.36
2018-11-05T14:00:37.758Z,72.81
2018-11-05T14:05:40.920Z,73.89
2018-11-05T14:10:44.259Z,74.24
2018-11-05T14:15:47.482Z,75.68
2018-11-05T14:20:50.964Z,76.82
2018-11-05T14:25:54.304Z,77.66
2018-11-05T14:30:57.512Z,78.14
2018-11-05T14:36:00.828Z,79.30
2018-11-05T14:41:04.272Z,80.12
2018-11-05T14:46:07.784Z,80.03
2018-11-05T14:51:11.043Z,81.97
2018-11-05T14:56:14.784Z,82.30
2018-11-05T15:01:18.091Z,82.70
2018-11-05T15:06:22.618Z,84.66
2018-11-05T15:11:26.352Z,86.80
2018-11-05T15:16:30.529Z,88.13
2018-11-05T15:21:35.713Z,90.22
2018-11-05T15:26:38.982Z,91.28
2018-11-05T15:31:42.045Z,91.99
2018-11-05T15:36:45.253Z,93.76
2018-11-05T15:41:48.744Z,94.79
2018-11-05T15:46:52.022Z,95.33
2018-11-05T15:51:55.612Z,96.21
2018-11-05T15:56:59.563Z,98.01
2018-11-05T16:02:03.007Z,100.00
2018-11-05T16:07:06.258Z,98.24
2018-11-05T16:12:09.972Z,97.74
2018-11-05T16:17:13.221Z,98.17
2018-11-05T16:22:16.536Z,99.12
2018-11-05T16:27:20.249Z,100.00
2018-11-05T16:32:23.645Z,100.00
2018-11-05T16:37:27.014Z,100.00
2018-11-05T16:42:30.253Z,99.07
2018-11-05T16:47:33.552Z,97.74
2018-11-05T16:52:36.791Z,97.10
2018-11-05T16:57:40.485Z,96.96
2018-11-05T17:02:43.886Z,97.21
2018-11-05T17:07:46.990Z,97.15
2018-11-05T17:12:50.387Z,96.51
2018-11-05T17:17:53.723Z,96.06
2018-11-05T17:22:57.181Z,95.54
2018-11-05T17:28:06.808Z,95.16
2018-11-05T17:33:10.046Z,94.53
2018-11-05T17:38:16.006Z,93.99
2018-11-05T17:43:19.329Z,95.40
2018-11-05T17:48:22.790Z,95.58
2018-11-05T17:53:26.105Z,96.04
2018-11-05T17:58:29.641Z,95.92
2018-11-05T18:03:33.043Z,95.78
2018-11-05T18:08:36.273Z,96.25
2018-11-05T18:13:40.368Z,97.56
2018-11-05T18:18:43.777Z,98.48
2018-11-05T18:23:53.245Z,97.75
2018-11-05T18:28:56.806Z,96.45
2018-11-05T18:34:00.182Z,94.31
2018-11-05T18:39:05.383Z,94.09
2018-11-05T18:44:08.607Z,94.38
2018-11-05T18:49:11.825Z,94.13
2018-11-05T18:54:14.968Z,94.23
2018-11-05T18:59:18.541Z,94.59
2018-11-05T19:04:22.064Z,96.16
2018-11-05T19:09:25.567Z,97.15
2018-11-05T19:14:29.250Z,97.38
2018-11-05T19:19:32.681Z,97.66
2018-11-05T19:24:36.420Z,97.07
2018-11-05T19:29:41.679Z,96.03
2018-11-05T19:34:45.863Z,95.25
2018-11-05T19:39:51.593Z,94.34
2018-11-05T19:45:09.288Z,94.20
2018-11-05T19:50:24.179Z,93.00
2018-11-05T19:55:33.603Z,93.71
2018-11-05T20:00:46.598Z,93.01
2018-11-05T20:06:06.456Z,92.96
2018-11-05T20:11:24.397Z,93.95
2018-11-05T20:16:32.772Z,94.11
2018-11-05T20:21:40.870Z,94.00
2018-11-05T20:26:45.030Z,93.98
2018-11-05T20:31:48.523Z,93.97
2018-11-05T20:36:51.702Z,93.38
2018-11-05T20:41:55.052Z,92.60
2018-11-05T20:46:58.446Z,92.76
2018-11-05T20:52:03.757Z,93.33
2018-11-05T20:57:07.019Z,94.54
2018-11-05T21:02:10.579Z,95.85
2018-11-05T21:07:13.856Z,95.93
2018-11-05T21:12:17.080Z,94.66
2018-11-05T21:17:20.338Z,92.94
2018-11-05T21:22:23.745Z,92.47
2018-11-05T21:27:27.001Z,91.64
2018-11-05T21:32:30.334Z,90.77
2018-11-05T21:37:33.576Z,91.21
2018-11-05T21:42:36.801Z,90.65
2018-11-05T21:47:41.018Z,88.75
2018-11-05T21:52:44.240Z,87.35
2018-11-05T21:57:47.510Z,85.19
2018-11-05T22:02:50.830Z,84.49
2018-11-05T22:07:54.200Z,83.79
2018-11-05T22:12:57.501Z,82.94
2018-11-05T22:18:01.094Z,82.69
2018-11-05T22:23:04.416Z,81.41
2018-11-05T22:28:07.647Z,81.46
2018-11-05T22:33:10.845Z,80.84
2018-11-05T22:38:14.123Z,81.12
2018-11-05T22:43:17.299Z,80.64
2018-11-05T22:48:20.578Z,80.17
2018-11-05T22:53:23.902Z,80.51
2018-11-05T22:58:27.300Z,80.29
2018-11-05T23:03:30.499Z,80.62
2018-11-05T23:08:33.674Z,80.97
2018-11-05T23:13:37.002Z,81.52
2018-11-05T23:18:40.209Z,81.97
2018-11-05T23:23:43.488Z,81.89
2018-11-05T23:28:46.729Z,81.84
2018-11-05T23:33:50.100Z,82.44
2018-11-05T23:38:53.428Z,83.53
2018-11-05T23:43:56.561Z,84.71
2018-11-05T23:48:59.787Z,84.90
2018-11-05T23:54:02.955Z,85.63
2018-11-05T23:59:06.182Z,86.09
